Milton (District Hospital) Heliport

CPY2 · Ontario, Canada

Storia di METAR CPY2 · Milton (District Hospital) Heliport

Di seguito sono riportati i METAR degli ultimi giorni. Seleziona un anno per sfogliare i METAR più vecchi, dall'anno 2007 in poi.

21 aprile 2024

Tempo Codice Tempo meteorologico Temp. Vista Base nuvolosa Vento METAR/SPECI
22:00
V
4 °C 15 mi - 260° 260° 7 kt METAR CYYZ 220200Z 26007KT 15SM SKC 04/M03 A2999 RMK SLP162
21:00
V
7 °C 15 mi - 260° 260° 8 kt METAR CYYZ 220100Z 26008KT 15SM FEW060 07/M04 A2997 RMK SC1 SC TR SLP157
20:00
V
8 °C 15 mi - 280° 280° 12 - 18 kt METAR CYYZ 220000Z 28012G18KT 15SM FEW060 08/M04 A2996 RMK SC2 SLP151
19:00
V
9 °C 15 mi - 280° 280° 17 - 24 kt METAR CYYZ 212300Z 28017G24KT 15SM SCT060 09/M05 A2995 RMK SC4 SLP150
18:00
V
9 °C 15 mi 6.200 ft 280° 280° 18 - 29 kt METAR CYYZ 212200Z 28018G29KT 15SM BKN062 09/M05 A2995 RMK SC6 SLP149
17:00
V
9 °C 15 mi 6.000 ft 270° 270° 22 - 28 kt METAR CYYZ 212100Z 27022G28KT 15SM BKN060 09/M04 A2995 RMK SC7 SLP147
16:00
V
9 °C 15 mi 5.800 ft 270° 270° 20 - 28 kt METAR CYYZ 212000Z 27020G28KT 15SM BKN058 09/M03 A2995 RMK SC7 SLP148
15:00
V
8 °C 15 mi 5.900 ft 290° 290° 17 - 25 kt METAR CYYZ 211900Z 29017G25KT 15SM BKN059 08/M04 A2996 RMK SC7 SLP152
14:00
V
9 °C 15 mi 6.000 ft 290° 290° 16 - 23 kt METAR CYYZ 211800Z 29016G23KT 250V320 15SM BKN060 09/M04 A2997 RMK SC7 SLP155
13:00
V
9 °C 15 mi 5.800 ft 280° 280° 16 - 23 kt METAR CYYZ 211700Z 28016G23KT 15SM BKN058 09/M05 A2998 RMK SC6 SLP157
12:00
V
7 °C 15 mi 5.100 ft 290° 290° 11 - 17 kt METAR CYYZ 211600Z 29011G17KT 15SM BKN051 07/M04 A3000 RMK SC7 SLP166
11:00
V
6 °C 15 mi 4.400 ft 280° 280° 13 kt METAR CYYZ 211500Z 28013KT 15SM BKN044 06/M03 A3001 RMK SC7 SLP170
10:00
V
5 °C 15 mi 4.000 ft 280° 280° 11 kt METAR CYYZ 211400Z 28011KT 15SM BKN040 BKN060 05/M03 A3001 RMK CU5SC2 SLP170
09:00
V
4 °C 15 mi 6.000 ft 270° 270° 10 kt METAR CYYZ 211300Z 27010KT 15SM FEW030 BKN060 04/M01 A3001 RMK CU1SC6 SLP171
08:00
V
3 °C 15 mi 5.800 ft 280° 280° 7 kt METAR CYYZ 211200Z 28007KT 15SM BKN058 03/M01 A3002 RMK SC7 SLP173
07:00
V
3 °C 15 mi 5.600 ft 280° 280° 8 kt METAR CYYZ 211100Z 28008KT 15SM FEW040 BKN056 03/M02 A3002 RMK SC2SC5 SLP172
06:00
V
4 °C 15 mi 6.000 ft 310° 310° 10 kt METAR CYYZ 211000Z 31010KT 15SM OVC060 04/M02 A3001 RMK SC8 SLP170
05:00
V
4 °C 15 mi 5.500 ft 300° 300° 9 kt METAR CYYZ 210900Z 30009KT 15SM OVC055 04/M02 A3001 RMK SC8 SLP170
04:00
V
4 °C 15 mi 6.000 ft 280° 280° 6 kt METAR CYYZ 210800Z 28006KT 15SM OVC060 04/M02 A3000 RMK SC8 SLP165
03:00
V
4 °C 15 mi 6.000 ft 260° 260° 8 kt METAR CYYZ 210700Z 26008KT 15SM OVC060 04/M02 A2999 RMK SC8 SLP164
02:00
V
4 °C 15 mi 5.500 ft 260° 260° 8 kt METAR CYYZ 210600Z 26008KT 15SM OVC055 04/M02 A3001 RMK SC8 SLP169
01:00
V
4 °C 15 mi 6.000 ft 250° 250° 6 kt METAR CYYZ 210500Z 25006KT 15SM OVC060 04/M02 A3003 RMK SC8 SLP175
00:00
V
4 °C 15 mi 6.000 ft 260° 260° 7 kt METAR CYYZ 210400Z 26007KT 15SM OVC060 04/M02 A3004 RMK SC8 SLP179

20 aprile 2024

Tempo Codice Tempo meteorologico Temp. Vista Base nuvolosa Vento METAR/SPECI
23:00
V
4 °C 15 mi 6.200 ft 260° 260° 8 kt METAR CYYZ 210300Z 26008KT 15SM OVC062 04/M03 A3006 RMK SC8 SLP187
22:00
V
4 °C 15 mi 6.200 ft 260° 260° 7 kt METAR CYYZ 210200Z 26007KT 15SM BKN062 04/M03 A3007 RMK SC7 SLP188
21:00
V
5 °C 15 mi 5.500 ft 270° 270° 12 kt METAR CYYZ 210100Z 27012KT 15SM BKN055 05/M03 A3006 RMK SC7 SLP186
20:00
V
5 °C 15 mi 6.200 ft 270° 270° 13 kt METAR CYYZ 210000Z 27013KT 15SM FEW022 SCT042 BKN062 05/M03 A3006 RMK CF1SC3SC3 SLP185
19:00
V
6 °C 15 mi 4.500 ft 270° 270° 17 kt METAR CYYZ 202300Z 27017KT 15SM BKN045 OVC065 06/M04 A3005 RMK SC6SC2 SH DIST E SLP183
18:00
V
6 °C 15 mi 5.100 ft 280° 280° 19 kt METAR CYYZ 202200Z 28019KT 15SM BKN051 06/M04 A3004 RMK SC7 SLP179
17:00
V
8 °C 15 mi 5.000 ft 270° 270° 12 - 19 kt METAR CYYZ 202100Z 27012G19KT 15SM BKN050 08/M02 A3002 RMK SC7 SLP172
16:00
V
7 °C 15 mi 4.000 ft 290° 290° 17 - 28 kt METAR CYYZ 202000Z 29017G28KT 15SM BKN040 OVC065 07/M03 A3002 RMK CU5SC3 SLP173
15:16
V
6 °C 15 mi 8.000 ft 310° 310° 17 - 23 kt METAR CYYZ 201916Z 31017G23KT 15SM SCT038 OVC080 06/M02 A3001 RMK CU4AC4 SLP170
15:05
V
6 °C 15 mi 8.000 ft 280° 280° 15 - 23 kt METAR CYYZ 201905Z CCA 28015G23KT 15SM -SHGS SCT035 BKN080 06/M02 A3001 RMK CU4AC3 SLP169
14:00
V
7 °C 15 mi 8.000 ft 280° 280° 8 - 19 kt METAR CYYZ 201800Z 28008G19KT 230V310 15SM SCT030TCU BKN080 07/M00 A2999 RMK TCU3AC2 SLP163
13:00
V
5 °C 15 mi 6.000 ft 290° 290° 15 kt METAR CYYZ 201700Z 29015KT 15SM VCSH SCT030 BKN060 05/M00 A3000 RMK CU3SC4 SLP165
12:42
V
4 °C 10 mi 7.000 ft 280° 280° 21 - 28 kt METAR CYYZ 201642Z 28021G28KT 10SM VCSH SCT028 OVC070 04/M01 A3000 RMK CU4AC4 VIS LWR W-N SLP165
12:18
M
5 °C 12 mi 2.700 ft 290° 290° 18 kt METAR CYYZ 201618Z 29018KT 12SM -SHSN BKN027 OVC060 05/M01 A2999 RMK SC6SC2 SLP162
12:00
V
5 °C 15 mi 6.500 ft 260° 260° 13 - 19 kt METAR CYYZ 201600Z 26013G19KT 15SM VCSH SCT033 OVC065 05/M02 A2998 RMK CU3SC5 SLP161
11:00
V
5 °C 15 mi 3.800 ft 290° 290° 15 - 20 kt METAR CYYZ 201500Z 29015G20KT 15SM VCSH BKN038 BKN067 05/M02 A2998 RMK SC5AC2 SLP157
10:40
V
5 °C 15 mi 6.500 ft 280° 280° 13 kt METAR CYYZ 201440Z 28013KT 15SM -SHGS SCT035 BKN065 05/M02 A2996 RMK SC4SC3 CVCTV CLD EMBD SLP153
10:00
V
5 °C 15 mi 6.500 ft 290° 290° 13 - 21 kt METAR CYYZ 201400Z 29013G21KT 15SM FEW030 BKN065 05/M02 A2995 RMK SC2SC5 SLP150
09:00
V
5 °C 15 mi 5.200 ft 300° 300° 13 kt METAR CYYZ 201300Z 30013KT 15SM FEW025 BKN052 05/M02 A2995 RMK SC2SC5 SLP147
08:00
V
5 °C 15 mi 8.000 ft 310° 310° 17 - 25 kt METAR CYYZ 201200Z 31017G25KT 15SM SCT030 BKN080 05/M00 A2994 RMK SC3AC4 SLP144=
07:00
V
6 °C 15 mi 8.700 ft 260° 260° 12 kt METAR CYYZ 201100Z 26012KT 15SM BKN087 06/M01 A2991 RMK AC6 SLP133=
06:00
V
6 °C 15 mi 9.000 ft 220° 220° 10 kt METAR CYYZ 201000Z 22010KT 15SM SCT075 BKN090 06/M02 A2990 RMK AC4AC3 SLP129=
05:00
V
6 °C 15 mi 9.500 ft 200° 200° 7 kt METAR CYYZ 200900Z 20007KT 15SM SCT075 BKN095 06/M02 A2992 RMK AC3AC3 SLP136=
04:00
V
6 °C 15 mi - 190° 190° 5 kt METAR CYYZ 200800Z 19005KT 15SM FEW085 FEW160 06/M01 A2993 RMK AC1AC1 SLP140=
03:00
V
6 °C 15 mi 17.000 ft 200° 200° 5 kt METAR CYYZ 200700Z 20005KT 15SM FEW150 BKN170 06/M01 A2994 RMK AC2AC5 SLP144=
02:00
V
6 °C 15 mi 15.000 ft 210° 210° 4 kt METAR CYYZ 200600Z 21004KT 15SM BKN150 06/M01 A2996 RMK AC7 SLP150=
01:00
V
6 °C 15 mi 14.000 ft 320° 320° 2 kt METAR CYYZ 200500Z 32002KT 15SM BKN140 06/M01 A2997 RMK AC7 SLP153=
00:00
V
6 °C 15 mi 15.000 ft 360° 360° 12 kt METAR CYYZ 200400Z 36012KT 15SM BKN150 06/M01 A2997 RMK AC6 SLP155=

19 aprile 2024

Tempo Codice Tempo meteorologico Temp. Vista Base nuvolosa Vento METAR/SPECI
23:00
V
8 °C 15 mi 15.000 ft 300° 300° 7 kt METAR CYYZ 200300Z 30007KT 15SM BKN150 08/M02 A2995 RMK AC5 SLP148=
22:00
V
9 °C 15 mi - 290° 290° 13 - 19 kt METAR CYYZ 200200Z 29013G19KT 15SM SCT150 09/M01 A2994 RMK AC3 SLP144=
21:00
V
10 °C 15 mi - 290° 290° 10 kt METAR CYYZ 200100Z 29010KT 15SM FEW160 10/00 A2992 RMK AC2 SLP138=
20:00
V
11 °C 15 mi - 290° 290° 14 - 20 kt METAR CYYZ 200000Z 29014G20KT 15SM FEW055 FEW100 11/00 A2990 RMK SC1AC1 SLP130=
19:00
V
12 °C 15 mi - 280° 280° 21 - 26 kt METAR CYYZ 192300Z 28021G26KT 15SM FEW055 FEW100 12/M00 A2989 RMK SC1AC1 AC TR SLP126=
18:00
V
14 °C 15 mi - 260° 260° 18 - 26 kt METAR CYYZ 192200Z 26018G26KT 15SM SCT045 14/02 A2988 RMK CU3 SLP122=
17:00
V
14 °C 15 mi - 290° 290° 20 - 26 kt METAR CYYZ 192100Z 29020G26KT 15SM SCT042 14/03 A2985 RMK CU3 SLP114=
16:00
V
15 °C 15 mi - 290° 290° 17 - 22 kt METAR CYYZ 192000Z 29017G22KT 15SM SCT034 15/05 A2984 RMK CU3 SLP108 DENSITY ALT 800FT=
15:00
M
14 °C 15 mi 2.500 ft 290° 290° 18 - 25 kt METAR CYYZ 191900Z 29018G25KT 15SM BKN025 14/08 A2982 RMK CU5 SLP102 DENSITY ALT 800FT=
14:00
M
15 °C 15 mi 2.500 ft 300° 300° 20 kt METAR CYYZ 191800Z 30020KT 15SM BKN025 15/09 A2979 RMK SC7 SLP092 DENSITY ALT 800FT=
13:18
M
13 °C 15 mi 1.600 ft 290° 290° 13 kt METAR CYYZ 191718Z 29013KT 15SM BKN016 13/10 A2978 RMK CF6 SLP089
13:00
M
12 °C 12 mi 1.000 ft 280° 280° 11 - 16 kt METAR CYYZ 191700Z 28011G16KT 12SM BKN010 12/10 A2978 RMK SC7 SLP090=
12:44
M
11 °C 10 mi 1.000 ft 260° 260° 10 kt METAR SPECI CYYZ 191644Z 26010KT 10SM BKN010 OVC025 11/11 A2979 RMK SC7SC1 SLP093=
12:00
L
9 °C 6 mi 400 ft 220° 220° 4 kt METAR CYYZ 191600Z 22004KT 150V250 6SM BR OVC004 09/09 A2980 RMK ST8 SLP095=
11:36
L
8 °C 5 mi 400 ft 180° 180° 5 kt METAR SPECI CYYZ 191536Z 18005KT 140V210 5SM BR BKN004 OVC018 08/08 A2979 RMK ST7SC1 SLP094=
11:06
I
9 °C 5 mi 500 ft 110° 110° 9 kt METAR SPECI CYYZ 191506Z 11009KT 090V150 5SM RA BR BKN005 OVC020 09/09 A2979 RMK SF5NS3 SLP093=
11:00
M
9 °C 4 mi 2.200 ft 120° 120° 7 kt METAR CYYZ 191500Z 12007KT 100V170 4SM RA BR SCT006 BKN022 OVC035 09/09 A2979 RMK SF3NS2NS3 SLP094=
10:00
V
9 °C 6 mi 5.200 ft 080° 080° 9 kt METAR CYYZ 191400Z 08009KT 6SM RA BR BKN052 OVC062 09/08 A2978 RMK SC5SC3 SLP088=
09:00
V
9 °C 12 mi 8.500 ft 080° 080° 10 kt METAR CYYZ 191300Z 08010KT 12SM RA SCT055 BKN085 OVC140 09/08 A2981 RMK SC4AC3AC1 PRESFR SLP099=
08:00
V
9 °C 12 mi 8.000 ft 100° 100° 6 kt METAR CYYZ 191200Z 10006KT 12SM RA SCT060 BKN080 OVC170 09/07 A2989 RMK SC4AC2AC2 SLP128=
07:00
V
8 °C 15 mi 10.000 ft 050° 050° 4 kt METAR CYYZ 191100Z 05004KT 15SM FEW060 BKN100 OVC180 08/07 A2988 RMK SC2AC3AC3 SLP123=
06:00
V
8 °C 15 mi 19.000 ft 130° 130° 4 kt METAR CYYZ 191000Z 13004KT 070V140 15SM FEW150 BKN190 BKN250 08/07 A2989 RMK AC1AS5CI1 SLP127=
05:00
V
7 °C 15 mi 24.000 ft 090° 090° 5 kt METAR CYYZ 190900Z 09005KT 15SM FEW180 BKN240 07/07 A2992 RMK AC2CI5 SLP139=
04:00
V
8 °C 15 mi 21.000 ft 140° 140° 4 kt METAR CYYZ 190800Z 14004KT 15SM FEW160 BKN210 08/07 A2994 RMK AC1CI6 SLP144=
03:00
V
9 °C 15 mi 16.000 ft 130° 130° 4 kt METAR CYYZ 190700Z 13004KT 15SM FEW090 BKN160 09/07 A2995 RMK AC1AC6 SLP147=
02:00
V
9 °C 15 mi 8.500 ft 080° 080° 4 kt METAR CYYZ 190600Z 08004KT 15SM BKN085 BKN150 09/07 A2998 RMK AC5AC2 PRESFR SLP157=
Segnala modifiche